createdAt,value
2024-05-09T00:00:43.017Z,22.11
2024-05-09T00:03:11.724Z,22.08
2024-05-09T00:05:41.602Z,22.10
2024-05-09T00:08:10.276Z,22.09
2024-05-09T00:10:39.471Z,22.02
2024-05-09T00:13:08.515Z,21.98
2024-05-09T00:15:36.762Z,21.94
2024-05-09T00:18:05.759Z,21.99
2024-05-09T00:20:38.806Z,21.89
2024-05-09T00:23:09.562Z,21.94
2024-05-09T00:25:37.693Z,21.95
2024-05-09T00:28:05.136Z,21.84
2024-05-09T00:30:35.604Z,21.91
2024-05-09T00:33:06.512Z,21.95
2024-05-09T00:35:35.244Z,21.90
2024-05-09T00:38:02.770Z,21.76
2024-05-09T00:40:41.904Z,21.79
2024-05-09T00:43:14.304Z,21.71
2024-05-09T00:45:42.507Z,21.61
2024-05-09T00:48:14.055Z,21.71
2024-05-09T00:50:44.892Z,21.69
2024-05-09T00:53:13.775Z,21.73
2024-05-09T00:55:41.754Z,21.72
2024-05-09T00:58:11.602Z,21.77
2024-05-09T01:00:40.949Z,21.68
2024-05-09T01:03:11.685Z,21.57
2024-05-09T01:05:41.056Z,21.67
2024-05-09T01:08:10.727Z,21.66
2024-05-09T01:10:39.131Z,21.64
2024-05-09T01:13:07.792Z,21.73
2024-05-09T01:15:35.944Z,21.71
2024-05-09T01:18:09.387Z,21.62
2024-05-09T01:20:42.056Z,21.50
2024-05-09T01:23:12.557Z,21.51
2024-05-09T01:25:40.859Z,21.53
2024-05-09T01:28:08.285Z,21.56
2024-05-09T01:30:37.449Z,21.44
2024-05-09T01:33:10.247Z,21.53
2024-05-09T01:35:41.350Z,21.47
2024-05-09T01:38:10.073Z,21.43
2024-05-09T01:40:40.227Z,21.44
2024-05-09T01:43:09.560Z,21.44
2024-05-09T01:45:38.626Z,21.50
2024-05-09T01:48:06.524Z,21.40
2024-05-09T01:50:39.192Z,21.43
2024-05-09T01:53:10.522Z,21.36
2024-05-09T01:55:37.990Z,21.31
2024-05-09T01:58:05.454Z,21.36
2024-05-09T02:00:39.196Z,21.36
2024-05-09T02:03:15.759Z,21.25
2024-05-09T02:05:46.573Z,21.35
2024-05-09T02:08:16.014Z,21.27
2024-05-09T02:10:47.789Z,21.34
2024-05-09T02:13:16.328Z,21.31
2024-05-09T02:15:43.918Z,21.28
2024-05-09T02:18:11.728Z,21.29
2024-05-09T02:20:42.391Z,21.28
2024-05-09T02:23:10.456Z,21.26
2024-05-09T02:25:37.764Z,21.21
2024-05-09T02:28:05.180Z,21.24
2024-05-09T02:30:39.447Z,21.27
2024-05-09T02:33:11.437Z,21.35
2024-05-09T02:35:40.798Z,21.18
2024-05-09T02:38:09.722Z,21.18
2024-05-09T02:40:39.142Z,21.22
2024-05-09T02:43:09.564Z,21.23
2024-05-09T02:45:38.156Z,21.20
2024-05-09T02:48:06.187Z,21.10
2024-05-09T02:50:38.966Z,21.05
2024-05-09T02:53:08.592Z,20.97
2024-05-09T02:55:36.649Z,21.13
2024-05-09T02:58:03.943Z,21.03
2024-05-09T03:00:38.369Z,20.99
2024-05-09T03:03:12.979Z,20.93
2024-05-09T03:05:43.930Z,20.95
2024-05-09T03:08:11.581Z,21.09
2024-05-09T03:10:39.683Z,20.90
2024-05-09T03:13:08.462Z,20.92
2024-05-09T03:15:36.986Z,20.96
2024-05-09T03:18:05.882Z,20.86
2024-05-09T03:20:35.515Z,20.99
2024-05-09T03:23:05.513Z,20.86
2024-05-09T03:25:33.651Z,20.97
2024-05-09T03:28:01.211Z,20.86
2024-05-09T03:30:38.950Z,20.80
2024-05-09T03:33:20.286Z,20.93
2024-05-09T03:35:49.182Z,20.88
2024-05-09T03:38:17.586Z,20.78
2024-05-09T03:40:50.471Z,20.77
2024-05-09T03:43:19.321Z,20.86
2024-05-09T03:45:48.739Z,20.77
2024-05-09T03:48:16.343Z,20.75
2024-05-09T03:50:43.881Z,20.77
2024-05-09T03:53:12.862Z,20.69
2024-05-09T03:55:40.247Z,20.84
2024-05-09T03:58:08.132Z,20.72
2024-05-09T04:00:39.238Z,20.84
2024-05-09T04:03:09.961Z,20.76
2024-05-09T04:05:41.040Z,20.88
2024-05-09T04:08:09.990Z,20.72
2024-05-09T04:10:37.664Z,20.77
2024-05-09T04:13:05.115Z,20.71
2024-05-09T04:15:32.709Z,20.68
2024-05-09T04:18:01.002Z,20.66
2024-05-09T04:20:37.094Z,20.62
2024-05-09T04:23:08.369Z,20.58
2024-05-09T04:25:36.577Z,20.75
2024-05-09T04:28:04.146Z,20.79
2024-05-09T04:30:37.903Z,20.72
2024-05-09T04:33:09.716Z,20.73
2024-05-09T04:35:39.225Z,20.71
2024-05-09T04:38:06.833Z,20.68
2024-05-09T04:40:37.228Z,20.55
2024-05-09T04:43:15.153Z,20.65
2024-05-09T04:45:42.557Z,20.72
2024-05-09T04:48:09.996Z,20.68
2024-05-09T04:50:39.359Z,20.54
2024-05-09T04:53:09.807Z,20.70
2024-05-09T04:55:38.463Z,20.73
2024-05-09T04:58:09.113Z,20.61
2024-05-09T05:00:38.867Z,20.61
2024-05-09T05:03:10.285Z,20.52
2024-05-09T05:05:44.048Z,20.54
2024-05-09T05:08:16.739Z,20.70
2024-05-09T05:10:45.283Z,20.57
2024-05-09T05:13:17.739Z,20.56
2024-05-09T05:15:58.712Z,20.72
2024-05-09T05:18:28.071Z,20.68
2024-05-09T05:20:56.583Z,20.60
2024-05-09T05:23:24.652Z,20.42
2024-05-09T05:25:55.685Z,20.57
2024-05-09T05:28:23.477Z,20.60
2024-05-09T05:30:50.916Z,20.62
2024-05-09T05:33:19.251Z,20.58
2024-05-09T05:35:47.118Z,20.56
2024-05-09T05:38:14.560Z,20.50
2024-05-09T05:40:41.910Z,20.54
2024-05-09T05:43:18.183Z,20.55
2024-05-09T05:45:46.102Z,20.53
2024-05-09T05:48:16.473Z,20.53
2024-05-09T05:50:44.507Z,20.53
2024-05-09T05:53:11.835Z,20.47
2024-05-09T05:55:40.369Z,20.55
2024-05-09T05:58:14.556Z,20.28
2024-05-09T06:00:43.201Z,20.33
2024-05-09T06:03:12.940Z,20.51
2024-05-09T06:05:43.327Z,20.33
2024-05-09T06:08:11.000Z,20.33
2024-05-09T06:10:40.515Z,20.34
2024-05-09T06:13:12.584Z,20.35
2024-05-09T06:15:41.125Z,20.38
2024-05-09T06:18:10.739Z,20.31
2024-05-09T06:20:40.401Z,20.40
2024-05-09T06:23:08.286Z,20.43
2024-05-09T06:25:36.587Z,20.38
2024-05-09T06:28:04.500Z,20.39
2024-05-09T06:30:38.951Z,20.39
2024-05-09T06:33:12.310Z,20.38
2024-05-09T06:35:41.678Z,20.32
2024-05-09T06:38:09.700Z,20.25
2024-05-09T06:40:43.884Z,20.32
2024-05-09T06:43:15.548Z,20.45
2024-05-09T06:45:46.119Z,20.46
2024-05-09T06:48:13.568Z,20.31
2024-05-09T06:50:41.801Z,20.23
2024-05-09T06:53:09.491Z,20.38
2024-05-09T06:55:38.798Z,20.41
2024-05-09T06:58:07.066Z,20.38
2024-05-09T07:00:39.199Z,20.19
2024-05-09T07:03:14.368Z,20.34
2024-05-09T07:05:44.172Z,20.18
2024-05-09T07:08:12.449Z,20.19
2024-05-09T07:10:39.794Z,20.22
2024-05-09T07:13:10.511Z,20.34
2024-05-09T07:15:38.090Z,20.39
2024-05-09T07:18:14.069Z,20.21
2024-05-09T07:20:42.373Z,20.18
2024-05-09T07:23:10.825Z,20.09
2024-05-09T07:25:39.029Z,20.23
2024-05-09T07:28:06.411Z,20.21
2024-05-09T07:30:35.375Z,20.14
2024-05-09T07:33:08.745Z,20.17
2024-05-09T07:35:36.456Z,20.33
2024-05-09T07:38:03.821Z,20.32
2024-05-09T07:40:35.976Z,20.32
2024-05-09T07:43:16.801Z,20.29
2024-05-09T07:45:51.951Z,20.38
2024-05-09T07:52:38.197Z,20.26
2024-05-09T07:53:50.928Z,20.23
2024-05-09T07:56:25.880Z,20.21
2024-05-09T07:58:54.834Z,20.29
2024-05-09T08:01:22.511Z,20.23
2024-05-09T08:03:50.279Z,20.15
2024-05-09T08:06:17.988Z,20.22
2024-05-09T08:08:46.993Z,20.24
2024-05-09T08:11:17.247Z,20.19
2024-05-09T08:13:44.533Z,20.29
2024-05-09T08:16:12.089Z,20.28
2024-05-09T08:18:40.635Z,20.48
2024-05-09T08:21:11.000Z,20.38
2024-05-09T08:23:38.273Z,20.47
2024-05-09T08:26:06.780Z,20.30
2024-05-09T08:28:34.051Z,20.33
2024-05-09T08:31:05.174Z,20.39
2024-05-09T08:33:34.187Z,20.33
2024-05-09T08:36:01.511Z,20.30
2024-05-09T08:38:28.805Z,20.29
2024-05-09T08:40:58.585Z,20.36
2024-05-09T08:43:27.236Z,20.43
2024-05-09T08:45:54.583Z,20.56
2024-05-09T08:48:23.935Z,20.47
2024-05-09T08:50:54.807Z,20.45
2024-05-09T08:53:22.136Z,20.46
2024-05-09T08:55:51.150Z,20.56
2024-05-09T08:58:21.939Z,20.52
2024-05-09T09:00:49.735Z,20.50
2024-05-09T09:03:23.030Z,20.55
2024-05-09T09:06:02.855Z,20.58
2024-05-09T09:08:30.137Z,20.67
2024-05-09T09:10:59.213Z,20.58
2024-05-09T09:13:27.235Z,20.72
2024-05-09T09:15:58.460Z,20.75
2024-05-09T09:18:28.216Z,20.84
2024-05-09T09:20:56.685Z,20.90
2024-05-09T09:23:24.001Z,20.95
2024-05-09T09:25:52.070Z,21.01
2024-05-09T09:28:19.472Z,21.06
2024-05-09T09:30:46.773Z,21.06
2024-05-09T09:33:14.218Z,21.01
2024-05-09T09:35:41.632Z,20.99
2024-05-09T09:38:10.776Z,20.93
2024-05-09T09:40:45.111Z,20.94
2024-05-09T09:43:23.551Z,20.98
2024-05-09T09:45:53.142Z,21.11
2024-05-09T09:48:24.359Z,21.18
2024-05-09T09:50:52.940Z,21.26
2024-05-09T09:53:20.504Z,21.30
2024-05-09T09:55:47.796Z,21.35
2024-05-09T09:58:22.370Z,21.43
2024-05-09T10:00:49.857Z,21.43
2024-05-09T10:03:17.304Z,21.48
2024-05-09T10:05:48.148Z,21.55
2024-05-09T10:08:16.269Z,21.54
2024-05-09T10:10:47.676Z,21.65
2024-05-09T10:13:16.576Z,21.67
2024-05-09T10:15:46.546Z,21.77
2024-05-09T10:18:14.619Z,21.79
2024-05-09T10:20:54.528Z,21.85
2024-05-09T10:23:36.307Z,21.84
2024-05-09T10:26:05.562Z,21.91
2024-05-09T10:28:35.574Z,21.94
2024-05-09T10:31:13.912Z,22.01
2024-05-09T10:33:53.471Z,22.07
2024-05-09T10:36:25.224Z,22.02
2024-05-09T10:38:53.941Z,22.07
2024-05-09T10:41:23.164Z,22.03
2024-05-09T10:43:51.163Z,22.15
2024-05-09T10:46:19.405Z,22.15
2024-05-09T10:48:47.999Z,22.11
2024-05-09T10:51:19.327Z,22.17
2024-05-09T10:53:50.713Z,22.22
2024-05-09T10:56:17.998Z,22.25
2024-05-09T10:58:45.409Z,22.29
2024-05-09T11:01:14.006Z,22.29
2024-05-09T11:03:42.205Z,22.38
2024-05-09T11:06:11.982Z,22.45
2024-05-09T11:08:39.823Z,22.47
2024-05-09T11:11:08.785Z,22.49
2024-05-09T11:13:38.058Z,22.48
2024-05-09T11:16:07.311Z,22.47
2024-05-09T11:18:38.174Z,22.44
2024-05-09T11:21:13.953Z,22.49
2024-05-09T11:23:41.848Z,22.52
2024-05-09T11:26:11.020Z,22.57
2024-05-09T11:28:38.455Z,22.64
2024-05-09T11:31:10.495Z,22.67
2024-05-09T11:33:41.088Z,22.73
2024-05-09T11:36:10.324Z,22.82
2024-05-09T11:38:37.756Z,22.86
2024-05-09T11:41:05.874Z,22.92
2024-05-09T11:43:34.120Z,22.92
2024-05-09T11:46:03.190Z,22.95
2024-05-09T11:48:31.165Z,22.94
2024-05-09T11:50:58.768Z,22.88
2024-05-09T11:53:26.046Z,22.95
2024-05-09T11:55:53.342Z,22.89
2024-05-09T11:58:22.900Z,22.94
2024-05-09T12:00:50.565Z,22.95
2024-05-09T12:03:18.081Z,22.99
2024-05-09T12:05:45.655Z,23.01
2024-05-09T12:08:13.149Z,23.02
2024-05-09T12:10:40.766Z,23.02
2024-05-09T12:13:08.315Z,23.09
2024-05-09T12:15:38.258Z,23.11
2024-05-09T12:18:07.343Z,23.15
2024-05-09T12:20:38.570Z,23.14
2024-05-09T12:23:09.470Z,23.18
2024-05-09T12:25:37.764Z,23.15
2024-05-09T12:28:05.324Z,23.16
2024-05-09T12:30:37.573Z,23.17
2024-05-09T12:33:16.070Z,23.20
2024-05-09T12:35:45.713Z,23.18
2024-05-09T12:38:15.580Z,23.16
2024-05-09T12:40:43.357Z,23.13
2024-05-09T12:43:11.598Z,23.14
2024-05-09T12:45:39.863Z,23.14
2024-05-09T12:48:12.125Z,23.17
2024-05-09T12:50:40.477Z,23.17
2024-05-09T12:53:07.925Z,23.20
2024-05-09T12:55:44.039Z,23.21
2024-05-09T12:58:17.594Z,23.21
2024-05-09T13:00:45.904Z,23.25
2024-05-09T13:03:13.593Z,23.20
2024-05-09T13:05:41.564Z,23.21
2024-05-09T13:08:10.343Z,23.25
2024-05-09T13:10:38.079Z,23.26
2024-05-09T13:13:05.553Z,23.29
2024-05-09T13:15:39.931Z,23.32
2024-05-09T13:18:07.772Z,23.34
2024-05-09T13:20:36.759Z,23.36
2024-05-09T13:23:05.887Z,23.34
2024-05-09T13:25:35.016Z,23.35
2024-05-09T13:28:03.265Z,23.35
2024-05-09T13:30:39.025Z,23.37
2024-05-09T13:33:10.379Z,23.40
2024-05-09T13:35:38.586Z,23.40
2024-05-09T13:38:06.063Z,23.41
2024-05-09T13:40:36.465Z,23.38
2024-05-09T13:43:05.220Z,23.41
2024-05-09T13:45:33.273Z,23.45
2024-05-09T13:48:02.118Z,23.45
2024-05-09T13:50:34.755Z,23.45
2024-05-09T13:53:08.214Z,23.46
2024-05-09T13:55:38.408Z,23.45
2024-05-09T13:58:06.243Z,23.47
2024-05-09T14:00:44.062Z,23.48
2024-05-09T14:03:16.754Z,23.49
2024-05-09T14:05:45.717Z,23.49
2024-05-09T14:08:15.355Z,23.49
2024-05-09T14:10:45.111Z,23.51
2024-05-09T14:13:13.201Z,23.51
2024-05-09T14:15:43.554Z,23.52
2024-05-09T14:18:13.499Z,23.54
2024-05-09T14:20:41.959Z,23.57
2024-05-09T14:23:09.383Z,23.56
2024-05-09T14:25:42.488Z,23.60
2024-05-09T14:28:12.418Z,23.60
2024-05-09T14:30:40.428Z,23.57
2024-05-09T14:33:08.862Z,23.60
2024-05-09T14:35:40.893Z,23.58
2024-05-09T14:38:09.914Z,23.63
2024-05-09T14:40:42.409Z,23.61
2024-05-09T14:43:16.627Z,23.62
2024-05-09T14:45:46.885Z,23.60
2024-05-09T14:48:15.674Z,23.65
2024-05-09T14:50:44.254Z,23.66
2024-05-09T14:53:13.194Z,23.63
2024-05-09T14:55:42.609Z,23.69
2024-05-09T14:58:11.524Z,23.69
2024-05-09T15:00:45.985Z,23.68
2024-05-09T15:03:17.389Z,23.70
2024-05-09T15:05:45.265Z,23.71
2024-05-09T15:08:12.621Z,23.72
2024-05-09T15:10:40.384Z,23.74
2024-05-09T15:13:09.772Z,23.73
2024-05-09T15:15:38.747Z,23.72
2024-05-09T15:18:06.672Z,23.73
2024-05-09T15:20:36.489Z,23.74
2024-05-09T15:23:06.813Z,23.73
2024-05-09T15:25:35.448Z,23.79
2024-05-09T15:28:03.182Z,23.74
2024-05-09T15:30:33.044Z,23.75
2024-05-09T15:33:05.340Z,23.80
2024-05-09T15:35:34.336Z,23.75
2024-05-09T15:38:03.354Z,23.76
2024-05-09T15:40:39.026Z,23.77
2024-05-09T15:43:09.776Z,23.81
2024-05-09T15:45:38.578Z,23.80
2024-05-09T15:48:07.258Z,23.82
2024-05-09T15:50:39.284Z,23.83
2024-05-09T15:53:10.298Z,23.82
2024-05-09T15:55:38.578Z,23.82
2024-05-09T15:58:06.704Z,23.82
2024-05-09T16:00:39.239Z,23.82
2024-05-09T16:03:14.072Z,23.83
2024-05-09T16:05:45.499Z,23.84
2024-05-09T16:08:14.533Z,23.83
2024-05-09T16:10:47.032Z,23.83
2024-05-09T16:13:15.732Z,23.82
2024-05-09T16:15:44.166Z,23.83
2024-05-09T16:18:11.712Z,23.79
2024-05-09T16:20:41.561Z,23.77
2024-05-09T16:23:10.913Z,23.79
2024-05-09T16:25:39.503Z,23.77
2024-05-09T16:28:09.977Z,23.78
2024-05-09T16:30:39.602Z,23.80
2024-05-09T16:33:07.879Z,23.79
2024-05-09T16:35:35.953Z,23.79
2024-05-09T16:38:04.226Z,23.79
2024-05-09T16:40:38.734Z,23.79
2024-05-09T16:43:09.284Z,23.79
2024-05-09T16:45:37.682Z,23.81
2024-05-09T16:48:06.759Z,23.82
2024-05-09T16:50:35.686Z,23.81
2024-05-09T16:53:05.174Z,23.81
2024-05-09T16:55:36.143Z,23.80
2024-05-09T16:58:08.641Z,23.80
2024-05-09T17:00:41.308Z,23.79
2024-05-09T17:03:13.100Z,23.78
2024-05-09T17:05:41.934Z,23.78
2024-05-09T17:08:09.741Z,23.78
2024-05-09T17:10:37.404Z,23.77
2024-05-09T17:13:07.104Z,23.75
2024-05-09T17:15:37.159Z,23.77
2024-05-09T17:18:06.019Z,23.77
2024-05-09T17:20:36.296Z,23.77
2024-05-09T17:23:12.840Z,23.77
2024-05-09T17:25:40.935Z,23.74
2024-05-09T17:28:09.431Z,23.78
2024-05-09T17:30:39.063Z,23.78
2024-05-09T17:33:09.906Z,23.76
2024-05-09T17:35:38.438Z,23.76
2024-05-09T17:38:08.954Z,23.78
2024-05-09T17:40:38.990Z,23.73
2024-05-09T17:43:10.955Z,23.76
2024-05-09T17:45:40.857Z,23.75
2024-05-09T17:48:10.272Z,23.75
2024-05-09T17:50:38.605Z,23.75
2024-05-09T17:53:06.769Z,23.75
2024-05-09T17:55:34.511Z,23.73
2024-05-09T17:58:02.388Z,23.73
2024-05-09T18:00:37.574Z,23.73
2024-05-09T18:03:08.925Z,23.72
2024-05-09T18:05:37.234Z,23.70
2024-05-09T18:08:06.031Z,23.69
2024-05-09T18:10:37.600Z,23.69
2024-05-09T18:13:08.327Z,23.65
2024-05-09T18:15:36.211Z,23.69
2024-05-09T18:18:04.178Z,23.67
2024-05-09T18:20:41.154Z,23.65
2024-05-09T18:23:17.342Z,23.67
2024-05-09T18:25:46.407Z,23.67
2024-05-09T18:28:14.288Z,23.67
2024-05-09T18:30:41.795Z,23.67
2024-05-09T18:33:11.402Z,23.65
2024-05-09T18:35:39.268Z,23.65
2024-05-09T18:38:06.528Z,23.65
2024-05-09T18:40:36.724Z,23.62
2024-05-09T18:43:08.487Z,23.63
2024-05-09T18:45:38.591Z,23.60
2024-05-09T18:48:07.424Z,23.54
2024-05-09T18:50:39.445Z,23.58
2024-05-09T18:53:09.211Z,23.52
2024-05-09T18:55:36.480Z,23.57
2024-05-09T18:58:06.642Z,23.57
2024-05-09T19:00:37.540Z,23.54
2024-05-09T19:03:13.281Z,23.52
2024-05-09T19:05:43.753Z,23.51
2024-05-09T19:08:12.465Z,23.49
2024-05-09T19:10:40.203Z,23.49
2024-05-09T19:13:13.129Z,23.48
2024-05-09T19:15:42.688Z,23.46
2024-05-09T19:18:10.928Z,23.45
2024-05-09T19:20:39.011Z,23.43
2024-05-09T19:23:07.311Z,23.43
2024-05-09T19:25:35.505Z,23.42
2024-05-09T19:28:05.680Z,23.42
2024-05-09T19:30:39.005Z,23.43
2024-05-09T19:33:10.172Z,23.39
2024-05-09T19:35:38.599Z,23.38
2024-05-09T19:38:06.037Z,23.38
2024-05-09T19:40:35.318Z,23.42
2024-05-09T19:43:05.687Z,23.41
2024-05-09T19:45:35.058Z,23.39
2024-05-09T19:48:06.876Z,23.37
2024-05-09T19:50:41.420Z,23.35
2024-05-09T19:53:12.118Z,23.35
2024-05-09T19:55:39.841Z,23.32
2024-05-09T19:58:07.967Z,23.31
2024-05-09T20:00:41.522Z,23.27
2024-05-09T20:03:12.182Z,23.27
2024-05-09T20:05:40.027Z,23.27
2024-05-09T20:08:07.700Z,23.27
2024-05-09T20:10:36.307Z,23.26
2024-05-09T20:13:06.314Z,23.27
2024-05-09T20:15:36.417Z,23.26
2024-05-09T20:18:04.767Z,23.24
2024-05-09T20:20:38.039Z,23.20
2024-05-09T20:23:09.793Z,23.18
2024-05-09T20:25:38.666Z,23.18
2024-05-09T20:28:06.751Z,23.16
2024-05-09T20:30:35.806Z,23.13
2024-05-09T20:33:05.162Z,23.14
2024-05-09T20:35:33.944Z,23.12
2024-05-09T20:38:02.659Z,23.09
2024-05-09T20:40:37.608Z,23.09
2024-05-09T20:43:09.709Z,23.04
2024-05-09T20:45:37.568Z,23.04
2024-05-09T20:48:05.173Z,23.00
2024-05-09T20:50:38.596Z,22.99
2024-05-09T20:53:13.130Z,22.99
2024-05-09T20:55:41.429Z,23.00
2024-05-09T20:58:09.805Z,22.98
2024-05-09T21:00:41.064Z,22.92
2024-05-09T21:03:12.347Z,22.90
2024-05-09T21:05:40.536Z,22.95
2024-05-09T21:08:08.300Z,22.94
2024-05-09T21:10:37.000Z,22.92
2024-05-09T21:13:05.468Z,22.95
2024-05-09T21:15:33.641Z,22.90
2024-05-09T21:18:01.038Z,22.87
2024-05-09T21:20:31.427Z,22.86
2024-05-09T21:23:00.273Z,22.92
2024-05-09T21:25:27.775Z,22.87
2024-05-09T21:27:55.415Z,22.85
2024-05-09T21:30:32.374Z,22.87
2024-05-09T21:33:09.768Z,22.82
2024-05-09T21:35:38.576Z,22.80
2024-05-09T21:38:07.132Z,22.78
2024-05-09T21:40:36.236Z,22.75
2024-05-09T21:43:05.265Z,22.79
2024-05-09T21:45:32.958Z,22.68
2024-05-09T21:48:00.534Z,22.71
2024-05-09T21:50:35.769Z,22.63
2024-05-09T21:53:07.395Z,22.73
2024-05-09T21:55:34.916Z,22.79
2024-05-09T21:58:02.918Z,22.82
2024-05-09T22:00:36.351Z,22.72
2024-05-09T22:03:06.721Z,22.66
2024-05-09T22:05:34.747Z,22.72
2024-05-09T22:08:02.306Z,22.68
2024-05-09T22:10:34.264Z,22.65
2024-05-09T22:13:04.984Z,22.59
2024-05-09T22:15:37.428Z,22.54
2024-05-09T22:18:08.572Z,22.66
2024-05-09T22:20:39.217Z,22.56
2024-05-09T22:23:08.273Z,22.58
2024-05-09T22:25:36.271Z,22.58
2024-05-09T22:28:04.089Z,22.58
2024-05-09T22:30:37.135Z,22.52
2024-05-09T22:33:11.158Z,22.53
2024-05-09T22:35:40.589Z,22.50
2024-05-09T22:38:08.301Z,22.45
2024-05-09T22:40:46.586Z,22.48
2024-05-09T22:43:24.318Z,22.54
2024-05-09T22:45:54.917Z,22.40
2024-05-09T22:48:23.835Z,22.36
2024-05-09T22:50:53.142Z,22.47
2024-05-09T22:53:22.951Z,22.38
2024-05-09T22:55:50.210Z,22.43
2024-05-09T22:58:18.141Z,22.35
2024-05-09T23:00:45.582Z,22.35
2024-05-09T23:03:15.985Z,22.33
2024-05-09T23:05:43.307Z,22.30
2024-05-09T23:08:10.816Z,22.30
2024-05-09T23:10:38.496Z,22.41
2024-05-09T23:13:09.216Z,22.29
2024-05-09T23:15:39.591Z,22.26
2024-05-09T23:18:07.360Z,22.28
2024-05-09T23:20:38.546Z,22.20
2024-05-09T23:23:08.328Z,22.26
2024-05-09T23:25:35.738Z,22.30
2024-05-09T23:28:03.234Z,22.24
2024-05-09T23:30:37.564Z,22.14
2024-05-09T23:33:08.240Z,22.18
2024-05-09T23:35:35.953Z,22.12
2024-05-09T23:38:03.340Z,22.17
2024-05-09T23:40:38.183Z,22.17
2024-05-09T23:43:09.044Z,22.16
2024-05-09T23:45:37.027Z,22.12
2024-05-09T23:48:04.928Z,22.23
2024-05-09T23:50:36.181Z,22.17
2024-05-09T23:53:06.127Z,22.23
2024-05-09T23:55:34.292Z,22.17
2024-05-09T23:58:01.659Z,22.06
